Clayton, Kansas
Current Conditions -  °F | °C
As of 7:53 AM on Saturday 25 Oct 2014 (Local Time) from KHLC Reporting Station
Clear Clear  
Wind Chill: 44°   Ceiling: Unl
Heat Index: 44°   Visibility: 10mi
Dew Point: 38°   Wind: 3mph
Humidity: 79%   Direction: 280°W
Pressure: 30.07"   Gusts: NA
Location:  39.74°N, 100.18°W
Report Text: KHLC 251253Z AUTO 28003KT 10SM CLR 07/03 A3007 RMK AO2 SLP179 T00670033
Loading
Personal Weather Stations






























Interactive Weather Map
Tropical Storm Tracking
New forecast layout! Learn more

10-Day Weather Forecast

Advertisements
Track Severe Weather on mobile